createdAt,value
2022-08-26T00:00:51.143Z,0.00
2022-08-26T00:01:51.182Z,0.00
2022-08-26T00:02:51.117Z,0.00
2022-08-26T00:03:51.157Z,0.00
2022-08-26T00:04:51.098Z,0.00
2022-08-26T00:05:51.119Z,0.00
2022-08-26T00:06:51.080Z,0.00
2022-08-26T00:07:51.086Z,0.00
2022-08-26T00:08:51.047Z,0.00
2022-08-26T00:09:51.056Z,0.00
2022-08-26T00:10:51.030Z,0.00
2022-08-26T00:11:51.111Z,0.00
2022-08-26T00:12:51.013Z,0.00
2022-08-26T00:13:51.024Z,0.00
2022-08-26T00:14:51.002Z,0.00
2022-08-26T00:15:51.000Z,0.00
2022-08-26T00:16:51.032Z,0.00
2022-08-26T00:17:50.972Z,0.00
2022-08-26T00:18:50.954Z,0.00
2022-08-26T00:19:50.964Z,0.00
2022-08-26T00:20:50.930Z,0.00
2022-08-26T00:21:51.222Z,0.00
2022-08-26T00:22:50.939Z,0.00
2022-08-26T00:23:50.894Z,0.00
2022-08-26T00:24:50.895Z,0.00
2022-08-26T00:25:51.084Z,0.00
2022-08-26T00:26:50.857Z,0.00
2022-08-26T00:27:50.843Z,0.00
2022-08-26T00:28:50.889Z,0.00
2022-08-26T00:29:50.835Z,0.00
2022-08-26T00:30:51.623Z,0.00
2022-08-26T00:31:50.946Z,0.00
2022-08-26T00:32:50.817Z,0.00
2022-08-26T00:33:50.765Z,0.00
2022-08-26T00:34:50.761Z,0.00
2022-08-26T00:35:50.773Z,0.00
2022-08-26T00:36:51.788Z,0.00
2022-08-26T00:37:50.738Z,0.00
2022-08-26T00:38:50.726Z,0.00
2022-08-26T00:39:50.724Z,0.00
2022-08-26T00:40:50.697Z,0.00
2022-08-26T00:41:50.697Z,0.00
2022-08-26T00:42:50.661Z,0.00
2022-08-26T00:43:50.666Z,0.00
2022-08-26T00:44:50.778Z,0.00
2022-08-26T00:45:50.707Z,0.00
2022-08-26T00:46:50.655Z,0.00
2022-08-26T00:47:50.635Z,0.00
2022-08-26T00:48:50.636Z,0.00
2022-08-26T00:49:50.603Z,0.00
2022-08-26T00:50:50.615Z,0.00
2022-08-26T00:51:50.605Z,0.00
2022-08-26T00:52:50.586Z,0.00
2022-08-26T00:53:50.557Z,0.00
2022-08-26T00:54:50.548Z,0.00
2022-08-26T00:55:50.567Z,0.00
2022-08-26T00:56:50.598Z,0.00
2022-08-26T00:57:50.531Z,0.00
2022-08-26T00:58:50.528Z,0.00
2022-08-26T00:59:50.498Z,0.00
2022-08-26T01:00:50.532Z,0.00
2022-08-26T01:01:50.542Z,0.00
2022-08-26T01:02:50.463Z,0.00
2022-08-26T01:03:50.453Z,0.00
2022-08-26T01:04:55.881Z,0.00
2022-08-26T01:05:51.438Z,0.00
2022-08-26T01:06:50.421Z,0.00
2022-08-26T01:07:50.405Z,0.00
2022-08-26T01:08:50.394Z,0.00
2022-08-26T01:09:50.414Z,0.00
2022-08-26T01:10:50.377Z,0.00
2022-08-26T01:11:50.356Z,0.00
2022-08-26T01:12:50.363Z,0.00
2022-08-26T01:13:50.330Z,0.00
2022-08-26T01:14:50.354Z,0.00
2022-08-26T01:15:50.322Z,0.00
2022-08-26T01:16:50.396Z,0.00
2022-08-26T01:17:50.298Z,0.00
2022-08-26T01:18:50.295Z,0.00
2022-08-26T01:19:50.280Z,0.00
2022-08-26T01:20:50.261Z,0.00
2022-08-26T01:21:50.258Z,0.00
2022-08-26T01:22:50.249Z,0.00
2022-08-26T01:23:50.230Z,0.00
2022-08-26T01:24:50.231Z,0.00
2022-08-26T01:25:50.212Z,0.00
2022-08-26T01:26:50.193Z,0.00
2022-08-26T01:27:50.387Z,0.00
2022-08-26T01:28:51.422Z,0.00
2022-08-26T01:29:50.162Z,0.00
2022-08-26T01:30:50.152Z,0.00
2022-08-26T01:31:50.171Z,0.00
2022-08-26T01:32:51.093Z,0.00
2022-08-26T01:33:50.111Z,0.00
2022-08-26T01:34:50.101Z,0.00
2022-08-26T01:35:50.113Z,0.00
2022-08-26T01:36:51.593Z,0.00
2022-08-26T01:37:50.084Z,0.00
2022-08-26T01:38:50.062Z,0.00
2022-08-26T01:39:50.115Z,0.00
2022-08-26T01:40:50.054Z,0.00
2022-08-26T01:41:53.744Z,0.00
2022-08-26T01:42:50.016Z,0.00
2022-08-26T01:43:50.018Z,0.00
2022-08-26T01:44:50.003Z,0.00
2022-08-26T01:45:50.038Z,0.00
2022-08-26T01:46:49.966Z,0.00
2022-08-26T01:47:49.977Z,0.00
2022-08-26T01:48:54.456Z,0.00
2022-08-26T01:49:50.828Z,0.00
2022-08-26T01:50:49.954Z,0.00
2022-08-26T01:51:49.916Z,0.00
2022-08-26T01:52:50.035Z,0.00
2022-08-26T01:53:49.940Z,0.00
2022-08-26T01:54:50.580Z,0.00
2022-08-26T01:55:49.915Z,0.00
2022-08-26T01:56:49.861Z,0.00
2022-08-26T01:57:49.970Z,0.00
2022-08-26T01:58:49.854Z,0.00
2022-08-26T01:59:49.839Z,0.00
2022-08-26T02:00:50.471Z,0.00
2022-08-26T02:01:49.806Z,0.00
2022-08-26T02:02:49.810Z,0.00
2022-08-26T02:03:49.806Z,0.00
2022-08-26T02:04:49.947Z,0.00
2022-08-26T02:05:51.433Z,0.00
2022-08-26T02:06:49.746Z,0.00
2022-08-26T02:07:49.768Z,0.00
2022-08-26T02:08:49.735Z,0.00
2022-08-26T02:09:49.730Z,0.00
2022-08-26T02:10:49.722Z,0.00
2022-08-26T02:11:51.070Z,0.00
2022-08-26T02:12:49.701Z,0.00
2022-08-26T02:13:49.675Z,0.00
2022-08-26T02:14:49.665Z,0.00
2022-08-26T02:15:49.656Z,0.00
2022-08-26T02:16:49.670Z,0.00
2022-08-26T02:17:49.640Z,0.00
2022-08-26T02:18:49.620Z,0.00
2022-08-26T02:19:49.606Z,0.00
2022-08-26T02:20:51.544Z,0.00
2022-08-26T02:21:51.300Z,0.00
2022-08-26T02:22:49.585Z,0.00
2022-08-26T02:23:49.556Z,0.00
2022-08-26T02:24:49.598Z,0.00
2022-08-26T02:25:49.541Z,0.00
2022-08-26T02:26:49.544Z,0.00
2022-08-26T02:27:49.535Z,0.00
2022-08-26T02:28:49.718Z,0.00
2022-08-26T02:29:49.507Z,0.00
2022-08-26T02:30:49.483Z,0.00
2022-08-26T02:31:49.551Z,0.00
2022-08-26T02:32:49.784Z,0.00
2022-08-26T02:33:49.472Z,0.00
2022-08-26T02:34:49.452Z,0.00
2022-08-26T02:35:49.449Z,0.00
2022-08-26T02:36:49.427Z,0.00
2022-08-26T02:37:49.656Z,0.00
2022-08-26T02:38:49.412Z,0.00
2022-08-26T02:39:49.464Z,0.00
2022-08-26T02:40:49.390Z,0.00
2022-08-26T02:41:49.378Z,0.00
2022-08-26T02:42:49.357Z,0.00
2022-08-26T02:43:49.343Z,0.00
2022-08-26T02:44:49.356Z,0.00
2022-08-26T02:45:49.329Z,0.00
2022-08-26T02:46:49.350Z,0.00
2022-08-26T02:47:49.323Z,0.00
2022-08-26T02:48:49.299Z,0.00
2022-08-26T02:49:49.274Z,0.00
2022-08-26T02:50:49.270Z,0.00
2022-08-26T02:51:49.258Z,0.00
2022-08-26T02:52:50.205Z,0.00
2022-08-26T02:53:49.238Z,0.00
2022-08-26T02:54:49.443Z,0.00
2022-08-26T02:55:49.216Z,0.00
2022-08-26T02:56:49.208Z,0.00
2022-08-26T02:57:49.195Z,0.00
2022-08-26T02:58:49.184Z,0.00
2022-08-26T02:59:49.277Z,0.00
2022-08-26T03:00:53.235Z,0.00
2022-08-26T03:01:49.286Z,0.00
2022-08-26T03:02:49.142Z,0.00
2022-08-26T03:03:49.153Z,0.00
2022-08-26T03:04:57.762Z,0.00
2022-08-26T03:05:50.115Z,0.00
2022-08-26T03:06:52.961Z,0.00
2022-08-26T03:07:49.089Z,0.00
2022-08-26T03:08:49.070Z,0.00
2022-08-26T03:09:49.061Z,0.00
2022-08-26T03:10:49.395Z,0.00
2022-08-26T03:11:49.044Z,0.00
2022-08-26T03:12:49.035Z,0.00
2022-08-26T03:13:49.711Z,0.00
2022-08-26T03:14:48.996Z,0.00
2022-08-26T03:15:49.060Z,0.00
2022-08-26T03:16:48.984Z,0.00
2022-08-26T03:17:49.010Z,0.00
2022-08-26T03:18:52.262Z,0.00
2022-08-26T03:20:46.524Z,0.00
2022-08-26T03:21:47.377Z,0.00
2022-08-26T03:22:46.516Z,0.00
2022-08-26T03:23:50.949Z,0.00
2022-08-26T03:24:46.657Z,0.00
2022-08-26T03:25:46.616Z,0.00
2022-08-26T03:26:52.047Z,0.00
2022-08-26T03:27:47.370Z,0.00
2022-08-26T03:28:46.670Z,0.00
2022-08-26T03:29:49.585Z,0.00
2022-08-26T03:30:46.886Z,0.00
2022-08-26T03:31:47.094Z,0.00
2022-08-26T03:32:46.687Z,0.00
2022-08-26T03:33:46.494Z,0.00
2022-08-26T03:34:46.293Z,0.00
2022-08-26T03:35:46.365Z,0.00
2022-08-26T03:36:46.594Z,0.00
2022-08-26T03:37:46.419Z,0.00
2022-08-26T03:38:46.382Z,0.00
2022-08-26T03:39:46.765Z,0.00
2022-08-26T03:40:46.353Z,0.00
2022-08-26T03:41:46.333Z,0.00
2022-08-26T03:42:47.392Z,0.00
2022-08-26T03:43:46.280Z,0.00
2022-08-26T03:44:46.679Z,0.00
2022-08-26T03:45:46.258Z,0.00
2022-08-26T03:46:46.692Z,0.00
2022-08-26T03:47:47.207Z,0.00
2022-08-26T03:48:46.245Z,0.00
2022-08-26T03:49:47.214Z,0.00
2022-08-26T03:50:47.181Z,0.00
2022-08-26T03:51:46.304Z,0.00
2022-08-26T03:52:46.372Z,0.00
2022-08-26T03:53:46.413Z,0.00
2022-08-26T03:54:46.183Z,0.00
2022-08-26T03:55:46.475Z,0.00
2022-08-26T03:56:46.427Z,0.00
2022-08-26T03:57:46.336Z,0.00
2022-08-26T03:58:46.075Z,0.00
2022-08-26T03:59:45.981Z,0.00
2022-08-26T04:00:46.058Z,0.00
2022-08-26T04:01:46.013Z,0.00
2022-08-26T04:02:46.267Z,0.00
2022-08-26T04:03:46.031Z,0.00
2022-08-26T04:04:45.886Z,0.00
2022-08-26T04:05:45.867Z,0.00
2022-08-26T04:06:46.042Z,0.00
2022-08-26T04:07:45.940Z,0.00
2022-08-26T04:08:45.894Z,0.00
2022-08-26T04:09:45.888Z,0.00
2022-08-26T04:10:45.848Z,0.00
2022-08-26T04:11:50.541Z,0.00
2022-08-26T04:12:45.993Z,0.00
2022-08-26T04:13:45.902Z,0.00
2022-08-26T04:14:47.214Z,0.00
2022-08-26T04:15:45.879Z,0.00
2022-08-26T04:16:45.876Z,0.00
2022-08-26T04:17:45.993Z,0.00
2022-08-26T04:18:46.930Z,0.00
2022-08-26T04:19:45.814Z,0.00
2022-08-26T04:20:45.865Z,5.62
2022-08-26T04:21:45.786Z,5.62
2022-08-26T04:22:46.034Z,5.62
2022-08-26T04:23:47.609Z,5.62
2022-08-26T04:24:45.784Z,5.62
2022-08-26T04:25:46.440Z,5.62
2022-08-26T04:26:45.973Z,5.62
2022-08-26T04:27:46.508Z,5.62
2022-08-26T04:28:45.876Z,11.25
2022-08-26T04:29:45.786Z,11.25
2022-08-26T04:30:46.079Z,11.25
2022-08-26T04:31:46.019Z,11.25
2022-08-26T04:32:46.348Z,16.88
2022-08-26T04:33:52.565Z,16.88
2022-08-26T04:34:45.519Z,16.88
2022-08-26T04:35:45.510Z,22.50
2022-08-26T04:36:45.498Z,22.50
2022-08-26T04:37:45.498Z,22.50
2022-08-26T04:38:45.491Z,28.12
2022-08-26T04:39:45.473Z,28.12
2022-08-26T04:40:46.709Z,28.12
2022-08-26T04:41:45.449Z,33.75
2022-08-26T04:42:45.444Z,33.75
2022-08-26T04:43:45.581Z,33.75
2022-08-26T04:44:45.410Z,33.75
2022-08-26T04:45:45.411Z,39.38
2022-08-26T04:46:45.494Z,39.38
2022-08-26T04:47:45.383Z,39.38
2022-08-26T04:48:45.370Z,39.38
2022-08-26T04:49:45.391Z,39.38
2022-08-26T04:50:45.342Z,45.00
2022-08-26T04:51:45.352Z,45.00
2022-08-26T04:52:45.333Z,45.00
2022-08-26T04:53:45.340Z,45.00
2022-08-26T04:54:45.301Z,50.62
2022-08-26T04:55:45.303Z,50.62
2022-08-26T04:56:45.294Z,50.62
2022-08-26T04:57:45.290Z,56.25
2022-08-26T04:58:45.271Z,56.25
2022-08-26T04:59:45.266Z,56.25
2022-08-26T05:00:45.243Z,61.88
2022-08-26T05:01:45.302Z,61.88
2022-08-26T05:02:45.231Z,61.88
2022-08-26T05:03:45.267Z,61.88
2022-08-26T05:04:45.192Z,67.50
2022-08-26T05:05:45.205Z,67.50
2022-08-26T05:06:45.174Z,73.12
2022-08-26T05:07:45.167Z,78.75
2022-08-26T05:08:45.156Z,78.75
2022-08-26T05:09:45.148Z,78.75
2022-08-26T05:10:45.169Z,84.38
2022-08-26T05:11:45.136Z,84.38
2022-08-26T05:12:45.128Z,90.00
2022-08-26T05:13:45.112Z,90.00
2022-08-26T05:14:45.209Z,90.00
2022-08-26T05:15:45.223Z,90.00
2022-08-26T05:16:45.075Z,90.00
2022-08-26T05:17:45.072Z,95.62
2022-08-26T05:18:45.042Z,101.25
2022-08-26T05:19:45.044Z,106.88
2022-08-26T05:20:45.035Z,106.88
2022-08-26T05:21:45.016Z,106.88
2022-08-26T05:22:45.002Z,118.12
2022-08-26T05:23:44.999Z,112.50
2022-08-26T05:24:44.984Z,118.12
2022-08-26T05:25:44.986Z,118.12
2022-08-26T05:26:44.988Z,123.75
2022-08-26T05:27:44.958Z,123.75
2022-08-26T05:28:44.944Z,123.75
2022-08-26T05:29:44.935Z,129.38
2022-08-26T05:30:44.994Z,129.38
2022-08-26T05:31:44.921Z,129.38
2022-08-26T05:32:44.898Z,129.38
2022-08-26T05:33:44.900Z,135.00
2022-08-26T05:34:45.057Z,135.00
2022-08-26T05:35:44.867Z,135.00
2022-08-26T05:36:44.865Z,140.62
2022-08-26T05:37:44.849Z,140.62
2022-08-26T05:38:44.838Z,146.25
2022-08-26T05:39:51.352Z,146.25
2022-08-26T05:40:45.815Z,146.25
2022-08-26T05:41:44.951Z,151.88
2022-08-26T05:42:44.800Z,151.88
2022-08-26T05:43:44.785Z,157.50
2022-08-26T05:44:56.121Z,157.50
2022-08-26T05:45:46.146Z,163.12
2022-08-26T05:46:44.955Z,157.50
2022-08-26T05:47:44.735Z,157.50
2022-08-26T05:48:44.722Z,151.88
2022-08-26T05:49:51.294Z,151.88
2022-08-26T05:50:45.711Z,157.50
2022-08-26T05:51:44.698Z,163.12
2022-08-26T05:52:44.680Z,168.75
2022-08-26T05:53:54.727Z,168.75
2022-08-26T05:54:45.666Z,168.75
2022-08-26T05:55:44.668Z,168.75
2022-08-26T05:56:44.659Z,174.38
2022-08-26T05:57:44.647Z,174.38
2022-08-26T05:58:44.622Z,180.00
2022-08-26T05:59:44.607Z,185.62
2022-08-26T06:00:44.589Z,196.88
2022-08-26T06:01:44.625Z,208.12
2022-08-26T06:02:44.663Z,202.50
2022-08-26T06:03:44.567Z,191.25
2022-08-26T06:04:44.551Z,191.25
2022-08-26T06:05:44.581Z,202.50
2022-08-26T06:06:45.075Z,213.75
2022-08-26T06:07:44.522Z,219.38
2022-08-26T06:08:44.532Z,225.00
2022-08-26T06:09:44.499Z,225.00
2022-08-26T06:10:44.492Z,225.00
2022-08-26T06:11:44.472Z,230.62
2022-08-26T06:12:44.473Z,230.62
2022-08-26T06:13:44.469Z,230.62
2022-08-26T06:14:44.465Z,230.62
2022-08-26T06:15:44.470Z,236.25
2022-08-26T06:16:44.489Z,236.25
2022-08-26T06:17:44.418Z,241.88
2022-08-26T06:18:44.404Z,247.50
2022-08-26T06:19:44.380Z,247.50
2022-08-26T06:20:57.021Z,253.12
2022-08-26T06:21:45.385Z,258.75
2022-08-26T06:22:44.353Z,264.38
2022-08-26T06:23:44.354Z,264.38
2022-08-26T06:24:44.346Z,270.00
2022-08-26T06:25:44.337Z,264.38
2022-08-26T06:26:44.317Z,264.38
2022-08-26T06:27:45.311Z,264.38
2022-08-26T06:28:45.504Z,270.00
2022-08-26T06:29:44.649Z,275.62
2022-08-26T06:30:44.311Z,275.62
2022-08-26T06:31:44.280Z,275.62
2022-08-26T06:32:44.274Z,275.62
2022-08-26T06:33:44.265Z,281.25
2022-08-26T06:34:44.257Z,281.25
2022-08-26T06:35:44.239Z,286.88
2022-08-26T06:36:44.531Z,286.88
2022-08-26T06:37:44.224Z,286.88
2022-08-26T06:38:44.216Z,286.88
2022-08-26T06:39:44.186Z,298.12
2022-08-26T06:40:44.184Z,298.12
2022-08-26T06:41:44.164Z,298.12
2022-08-26T06:42:44.165Z,303.75
2022-08-26T06:43:44.141Z,303.75
2022-08-26T06:44:44.747Z,303.75
2022-08-26T06:45:44.124Z,303.75
2022-08-26T06:46:44.326Z,292.50
2022-08-26T06:47:44.090Z,286.88
2022-08-26T06:48:44.098Z,298.12
2022-08-26T06:49:44.301Z,298.12
2022-08-26T06:50:44.054Z,298.12
2022-08-26T06:51:44.051Z,315.00
2022-08-26T06:52:44.031Z,326.25
2022-08-26T06:53:44.033Z,337.50
2022-08-26T06:54:44.279Z,337.50
2022-08-26T06:55:44.009Z,343.12
2022-08-26T06:56:43.990Z,331.88
2022-08-26T06:57:44.002Z,320.62
2022-08-26T06:58:43.988Z,337.50
2022-08-26T06:59:43.981Z,331.88
2022-08-26T07:00:47.198Z,337.50
2022-08-26T07:01:44.030Z,348.75
2022-08-26T07:02:46.898Z,348.75
2022-08-26T07:03:43.930Z,348.75
2022-08-26T07:04:43.920Z,348.75
2022-08-26T07:05:43.900Z,337.50
2022-08-26T07:06:43.907Z,343.12
2022-08-26T07:07:43.878Z,337.50
2022-08-26T07:08:43.869Z,343.12
2022-08-26T07:09:43.860Z,354.38
2022-08-26T07:10:43.857Z,348.75
2022-08-26T07:11:43.832Z,354.38
2022-08-26T07:12:43.828Z,360.00
2022-08-26T07:13:43.819Z,360.00
2022-08-26T07:14:47.459Z,365.62
2022-08-26T07:15:43.900Z,365.62
2022-08-26T07:16:43.782Z,371.25
2022-08-26T07:17:43.775Z,371.25
2022-08-26T07:18:44.834Z,365.62
2022-08-26T07:19:43.741Z,348.75
2022-08-26T07:20:43.747Z,348.75
2022-08-26T07:21:43.733Z,337.50
2022-08-26T07:22:43.715Z,337.50
2022-08-26T07:23:43.761Z,343.12
2022-08-26T07:24:43.955Z,348.75
2022-08-26T07:25:43.689Z,331.88
2022-08-26T07:26:43.715Z,320.62
2022-08-26T07:27:43.674Z,309.38
2022-08-26T07:28:43.671Z,298.12
2022-08-26T07:29:43.693Z,292.50
2022-08-26T07:30:43.731Z,281.25
2022-08-26T07:31:43.746Z,281.25
2022-08-26T07:32:43.633Z,292.50
2022-08-26T07:33:43.616Z,309.38
2022-08-26T07:34:43.630Z,354.38
2022-08-26T07:35:43.609Z,354.38
2022-08-26T07:36:43.620Z,348.75
2022-08-26T07:37:43.638Z,326.25
2022-08-26T07:38:43.568Z,343.12
2022-08-26T07:39:43.652Z,360.00
2022-08-26T07:40:43.544Z,376.88
2022-08-26T07:41:43.538Z,388.12
2022-08-26T07:42:43.557Z,416.25
2022-08-26T07:43:43.583Z,421.88
2022-08-26T07:44:43.630Z,421.88
2022-08-26T07:45:43.526Z,438.75
2022-08-26T07:46:44.023Z,444.38
2022-08-26T07:47:43.514Z,455.62
2022-08-26T07:48:46.094Z,455.62
2022-08-26T07:49:43.507Z,461.25
2022-08-26T07:50:49.347Z,461.25
2022-08-26T07:51:44.421Z,466.88
2022-08-26T07:52:43.424Z,461.25
2022-08-26T07:53:43.409Z,466.88
2022-08-26T07:54:43.465Z,472.50
2022-08-26T07:55:43.421Z,495.00
2022-08-26T07:56:44.296Z,506.25
2022-08-26T07:57:43.349Z,517.50
2022-08-26T07:58:45.733Z,528.75
2022-08-26T07:59:43.370Z,528.75
2022-08-26T08:00:43.321Z,528.75
2022-08-26T08:01:44.889Z,540.00
2022-08-26T08:02:43.324Z,551.25
2022-08-26T08:03:43.290Z,545.62
2022-08-26T08:04:43.410Z,551.25
2022-08-26T08:05:43.297Z,540.00
2022-08-26T08:06:43.994Z,540.00
2022-08-26T08:07:45.283Z,545.62
2022-08-26T08:08:43.533Z,551.25
2022-08-26T08:09:43.237Z,556.88
2022-08-26T08:10:43.303Z,568.12
2022-08-26T08:11:44.226Z,573.75
2022-08-26T08:12:43.235Z,579.38
2022-08-26T08:13:43.227Z,573.75
2022-08-26T08:14:43.177Z,573.75
2022-08-26T08:15:43.185Z,573.75
2022-08-26T08:16:46.874Z,573.75
2022-08-26T08:17:43.165Z,573.75
2022-08-26T08:18:43.192Z,568.12
2022-08-26T08:19:43.127Z,568.12
2022-08-26T08:20:47.624Z,573.75
2022-08-26T08:21:44.130Z,596.25
2022-08-26T08:22:43.101Z,601.88
2022-08-26T08:23:43.228Z,607.50
2022-08-26T08:24:43.103Z,607.50
2022-08-26T08:25:43.064Z,607.50
2022-08-26T08:26:43.065Z,613.12
2022-08-26T08:27:43.069Z,613.12
2022-08-26T08:28:43.062Z,618.75
2022-08-26T08:29:43.018Z,624.38
2022-08-26T08:30:43.089Z,635.62
2022-08-26T08:31:56.803Z,646.88
2022-08-26T08:32:44.093Z,646.88
2022-08-26T08:33:43.038Z,652.50
2022-08-26T08:35:42.980Z,652.50
2022-08-26T08:36:42.947Z,652.50
2022-08-26T08:37:43.008Z,646.88
2022-08-26T08:38:42.999Z,652.50
2022-08-26T08:39:43.161Z,652.50
2022-08-26T08:40:42.901Z,652.50
2022-08-26T08:41:42.887Z,652.50
2022-08-26T08:42:42.978Z,652.50
2022-08-26T08:43:42.980Z,652.50
2022-08-26T08:44:42.875Z,652.50
2022-08-26T08:45:42.902Z,641.25
2022-08-26T08:46:42.857Z,641.25
2022-08-26T08:47:42.835Z,641.25
2022-08-26T08:48:42.851Z,630.00
2022-08-26T08:49:42.795Z,618.75
2022-08-26T08:50:42.812Z,618.75
2022-08-26T08:51:42.802Z,630.00
2022-08-26T08:52:42.759Z,624.38
2022-08-26T08:53:43.187Z,618.75
2022-08-26T08:54:42.756Z,613.12
2022-08-26T08:55:42.762Z,607.50
2022-08-26T08:56:42.773Z,607.50
2022-08-26T08:57:42.727Z,601.88
2022-08-26T08:58:42.716Z,601.88
2022-08-26T08:59:42.703Z,596.25
2022-08-26T09:00:42.688Z,590.62
2022-08-26T09:01:42.755Z,568.12
2022-08-26T09:02:42.693Z,568.12
2022-08-26T09:03:42.676Z,556.88
2022-08-26T09:04:42.657Z,551.25
2022-08-26T09:05:48.072Z,556.88
2022-08-26T09:06:43.658Z,551.25
2022-08-26T09:07:42.863Z,556.88
2022-08-26T09:08:42.626Z,551.25
2022-08-26T09:09:42.639Z,556.88
2022-08-26T09:10:42.666Z,568.12
2022-08-26T09:11:42.595Z,579.38
2022-08-26T09:12:42.586Z,590.62
2022-08-26T09:13:42.588Z,607.50
2022-08-26T09:14:42.578Z,607.50
2022-08-26T09:15:42.550Z,596.25
2022-08-26T09:16:42.667Z,590.62
2022-08-26T09:17:42.522Z,596.25
2022-08-26T09:18:42.528Z,579.38
2022-08-26T09:19:42.498Z,573.75
2022-08-26T09:20:42.495Z,579.38
2022-08-26T09:21:42.492Z,579.38
2022-08-26T09:22:44.170Z,585.00
2022-08-26T09:23:42.899Z,596.25
2022-08-26T09:24:48.306Z,607.50
2022-08-26T09:25:43.489Z,635.62
2022-08-26T09:26:42.432Z,658.12
2022-08-26T09:27:42.448Z,663.75
2022-08-26T09:28:42.419Z,680.62
2022-08-26T09:29:42.419Z,708.75
2022-08-26T09:30:42.437Z,736.88
2022-08-26T09:31:42.381Z,753.75
2022-08-26T09:32:42.363Z,776.25
2022-08-26T09:33:42.359Z,781.88
2022-08-26T09:34:42.345Z,798.75
2022-08-26T09:35:42.366Z,798.75
2022-08-26T09:36:42.332Z,787.50
2022-08-26T09:37:42.382Z,793.12
2022-08-26T09:38:42.297Z,821.25
2022-08-26T09:39:42.286Z,832.50
2022-08-26T09:40:42.282Z,849.38
2022-08-26T09:41:42.486Z,832.50
2022-08-26T09:42:42.253Z,826.88
2022-08-26T09:43:42.251Z,838.12
2022-08-26T09:44:42.231Z,883.12
2022-08-26T09:45:49.361Z,894.38
2022-08-26T09:46:43.231Z,894.38
2022-08-26T09:47:42.199Z,894.38
2022-08-26T09:48:42.251Z,894.38
2022-08-26T09:49:42.205Z,900.00
2022-08-26T09:50:42.189Z,900.00
2022-08-26T09:51:42.174Z,911.25
2022-08-26T09:52:42.925Z,945.00
2022-08-26T09:53:42.178Z,950.62
2022-08-26T09:54:42.148Z,950.62
2022-08-26T09:55:42.145Z,950.62
2022-08-26T09:56:42.134Z,950.62
2022-08-26T09:57:42.102Z,961.88
2022-08-26T09:58:42.076Z,967.50
2022-08-26T09:59:42.083Z,973.12
2022-08-26T10:00:42.079Z,973.12
2022-08-26T10:01:42.413Z,978.75
2022-08-26T10:02:42.168Z,978.75
2022-08-26T10:03:43.174Z,984.38
2022-08-26T10:04:42.147Z,995.62
2022-08-26T10:05:42.085Z,1001.25
2022-08-26T10:06:42.017Z,1012.50
2022-08-26T10:07:42.037Z,1018.12
2022-08-26T10:08:42.013Z,1040.62
2022-08-26T10:09:42.004Z,1051.88
2022-08-26T10:10:41.985Z,1068.75
2022-08-26T10:11:42.007Z,1080.00
2022-08-26T10:12:41.979Z,1091.25
2022-08-26T10:13:41.949Z,1113.75
2022-08-26T10:14:49.052Z,1125.00
2022-08-26T10:15:50.048Z,1125.00
2022-08-26T10:16:42.956Z,1130.62
2022-08-26T10:17:41.908Z,1147.50
2022-08-26T10:18:41.914Z,1164.38
2022-08-26T10:19:56.486Z,1170.00
2022-08-26T10:20:42.954Z,1170.00
2022-08-26T10:21:41.863Z,1170.00
2022-08-26T10:22:41.849Z,1170.00
2022-08-26T10:24:41.841Z,1164.38
2022-08-26T10:25:41.863Z,1147.50
2022-08-26T10:26:41.828Z,1125.00
2022-08-26T10:27:51.101Z,1091.25
2022-08-26T10:28:44.392Z,1046.25
2022-08-26T10:29:41.796Z,1046.25
2022-08-26T10:30:42.864Z,1040.62
2022-08-26T10:31:41.776Z,1012.50
2022-08-26T10:32:41.765Z,1001.25
2022-08-26T10:33:41.732Z,990.00
2022-08-26T10:34:41.718Z,984.38
2022-08-26T10:35:41.728Z,984.38
2022-08-26T10:37:05.119Z,990.00
2022-08-26T10:37:42.679Z,995.62
2022-08-26T10:38:41.686Z,973.12
2022-08-26T10:39:41.687Z,984.38
2022-08-26T10:40:41.894Z,990.00
2022-08-26T10:41:41.680Z,1023.75
2022-08-26T10:42:42.201Z,1035.00
2022-08-26T10:43:41.642Z,1057.50
2022-08-26T10:44:43.836Z,1040.62
2022-08-26T10:45:41.656Z,1057.50
2022-08-26T10:46:41.610Z,1080.00
2022-08-26T10:47:41.581Z,1080.00
2022-08-26T10:48:41.604Z,1068.75
2022-08-26T10:49:41.891Z,1023.75
2022-08-26T10:50:41.635Z,1006.88
2022-08-26T10:51:41.538Z,1006.88
2022-08-26T10:52:41.542Z,945.00
2022-08-26T10:53:42.564Z,1012.50
2022-08-26T10:54:41.543Z,1018.12
2022-08-26T10:55:41.496Z,1023.75
2022-08-26T10:56:41.486Z,1001.25
2022-08-26T10:57:41.473Z,1023.75
2022-08-26T10:58:41.494Z,1108.12
2022-08-26T10:59:41.490Z,1158.75
2022-08-26T11:00:41.510Z,1175.62
2022-08-26T11:01:41.522Z,1215.00
2022-08-26T11:02:41.429Z,1237.50
2022-08-26T11:03:42.434Z,1237.50
2022-08-26T11:04:45.607Z,1248.75
2022-08-26T11:05:42.445Z,1237.50
2022-08-26T11:06:41.872Z,1209.38
2022-08-26T11:07:41.460Z,1215.00
2022-08-26T11:08:41.370Z,1220.62
2022-08-26T11:09:41.404Z,1372.50
2022-08-26T11:10:41.353Z,1788.75
2022-08-26T11:11:41.357Z,2120.62
2022-08-26T11:12:41.344Z,2131.88
2022-08-26T11:13:41.682Z,2047.50
2022-08-26T11:14:58.813Z,2013.75
2022-08-26T11:15:42.366Z,2131.88
2022-08-26T11:16:42.937Z,2244.38
2022-08-26T11:17:41.290Z,2345.62
2022-08-26T11:18:41.281Z,2486.25
2022-08-26T11:19:59.409Z,2514.38
2022-08-26T11:20:42.444Z,2452.50
2022-08-26T11:21:41.255Z,2452.50
2022-08-26T11:22:47.979Z,2351.25
2022-08-26T11:23:42.270Z,2452.50
2022-08-26T11:24:41.209Z,2463.75
2022-08-26T11:25:41.229Z,2553.75
2022-08-26T11:26:55.758Z,2756.25
2022-08-26T11:27:42.224Z,2784.38
2022-08-26T11:28:44.171Z,2806.88
2022-08-26T11:29:41.191Z,2221.88
2022-08-26T11:30:41.499Z,1794.38
2022-08-26T11:31:41.177Z,1479.38
2022-08-26T11:32:41.191Z,1546.88
2022-08-26T11:33:41.117Z,1766.25
2022-08-26T11:34:41.148Z,2508.75
2022-08-26T11:35:41.100Z,2458.12
2022-08-26T11:36:41.100Z,2362.50
2022-08-26T11:37:41.343Z,2126.25
2022-08-26T11:38:41.058Z,2401.88
2022-08-26T11:39:45.761Z,2261.25
2022-08-26T11:40:42.253Z,2081.25
2022-08-26T11:41:41.103Z,2086.88
2022-08-26T11:42:41.609Z,1738.12
2022-08-26T11:43:41.060Z,1473.75
2022-08-26T11:44:41.297Z,1400.62
2022-08-26T11:45:43.140Z,1451.25
2022-08-26T11:46:40.998Z,1468.12
2022-08-26T11:47:40.985Z,1946.25
2022-08-26T11:48:40.970Z,2216.25
2022-08-26T11:49:41.837Z,2356.88
2022-08-26T11:50:40.937Z,2728.12
2022-08-26T11:51:43.330Z,2615.62
2022-08-26T11:52:40.984Z,2587.50
2022-08-26T11:53:40.943Z,2576.25
2022-08-26T11:54:40.901Z,2683.12
2022-08-26T11:55:40.903Z,2626.88
2022-08-26T11:56:40.984Z,2570.62
2022-08-26T11:57:40.909Z,2452.50
2022-08-26T11:58:40.918Z,2300.62
2022-08-26T11:59:40.878Z,2238.75
2022-08-26T12:00:45.570Z,2103.75
2022-08-26T12:01:41.911Z,2221.88
2022-08-26T12:02:40.855Z,2053.12
2022-08-26T12:03:40.902Z,1884.38
2022-08-26T12:04:40.891Z,1147.50
2022-08-26T12:05:40.803Z,1080.00
2022-08-26T12:06:45.209Z,1816.88
2022-08-26T12:07:42.641Z,2036.25
2022-08-26T12:08:40.788Z,2221.88
2022-08-26T12:09:40.758Z,2233.12
2022-08-26T12:10:40.758Z,2165.62
2022-08-26T12:11:40.742Z,2086.88
2022-08-26T12:12:40.730Z,1333.12
2022-08-26T12:13:40.732Z,1552.50
2022-08-26T12:14:40.763Z,2486.25
2022-08-26T12:15:40.946Z,2565.00
2022-08-26T12:16:40.743Z,2700.00
2022-08-26T12:17:40.889Z,2565.00
2022-08-26T12:18:40.712Z,2531.25
2022-08-26T12:19:40.699Z,2581.88
2022-08-26T12:20:40.669Z,2688.75
2022-08-26T12:21:40.676Z,2638.12
2022-08-26T12:22:40.669Z,2598.75
2022-08-26T12:23:41.788Z,2700.00
2022-08-26T12:24:40.726Z,2694.38
2022-08-26T12:25:40.635Z,2610.00
2022-08-26T12:26:40.647Z,2581.88
2022-08-26T12:27:41.587Z,2334.38
2022-08-26T12:28:40.624Z,1254.38
2022-08-26T12:29:40.585Z,2131.88
2022-08-26T12:30:40.577Z,2103.75
2022-08-26T12:31:40.919Z,1991.25
2022-08-26T12:32:50.914Z,1985.62
2022-08-26T12:33:41.553Z,2092.50
2022-08-26T12:34:40.607Z,2463.75
2022-08-26T12:35:40.507Z,2649.38
2022-08-26T12:36:40.604Z,2863.12
2022-08-26T12:37:40.839Z,2919.38
2022-08-26T12:38:40.501Z,2874.38
2022-08-26T12:39:40.788Z,2919.38
2022-08-26T12:40:40.467Z,2941.88
2022-08-26T12:41:40.463Z,3060.00
2022-08-26T12:42:40.520Z,3054.38
2022-08-26T12:43:40.799Z,3020.62
2022-08-26T12:44:40.444Z,2947.50
2022-08-26T12:45:40.414Z,2953.12